createdAt,value
2017-05-17T00:00:46.576Z,3.24
2017-05-17T00:03:13.786Z,3.50
2017-05-17T00:05:40.983Z,3.60
2017-05-17T00:08:08.182Z,3.18
2017-05-17T00:10:35.397Z,3.14
2017-05-17T00:13:03.318Z,3.80
2017-05-17T00:15:30.556Z,3.14
2017-05-17T00:17:58.126Z,3.52
2017-05-17T00:20:25.300Z,3.32
2017-05-17T00:22:52.476Z,3.82
2017-05-17T00:25:19.668Z,3.94
2017-05-17T00:27:46.940Z,3.36
2017-05-17T00:30:14.271Z,3.88
2017-05-17T00:32:43.743Z,2.82
2017-05-17T00:35:11.264Z,3.44
2017-05-17T00:37:50.837Z,3.36
2017-05-17T00:40:36.335Z,3.20
2017-05-17T00:43:21.831Z,3.72
2017-05-17T00:46:07.438Z,3.38
2017-05-17T00:48:53.192Z,3.60
2017-05-17T00:51:38.678Z,3.34
2017-05-17T00:54:11.824Z,3.18
2017-05-17T00:56:39.766Z,3.08
2017-05-17T00:59:06.948Z,3.32
2017-05-17T01:01:34.501Z,3.10
2017-05-17T01:04:01.736Z,3.00
2017-05-17T01:06:28.935Z,3.52
2017-05-17T01:08:56.445Z,3.54
2017-05-17T01:11:23.672Z,3.86
2017-05-17T01:13:50.837Z,3.02
2017-05-17T01:16:18.019Z,3.64
2017-05-17T01:18:46.038Z,3.60
2017-05-17T01:21:13.269Z,3.40
2017-05-17T01:23:40.469Z,3.60
2017-05-17T01:26:08.576Z,3.30
2017-05-17T01:28:36.269Z,3.20
2017-05-17T01:31:04.365Z,3.38
2017-05-17T01:33:31.669Z,2.80
2017-05-17T01:35:58.939Z,3.00
2017-05-17T01:38:26.268Z,3.12
2017-05-17T01:40:53.499Z,2.78
2017-05-17T01:43:20.732Z,3.04
2017-05-17T01:45:48.064Z,2.82
2017-05-17T01:48:15.327Z,2.84
2017-05-17T01:50:42.926Z,3.14
2017-05-17T01:53:10.869Z,2.60
2017-05-17T01:55:38.057Z,2.76
2017-05-17T01:58:05.262Z,3.20
2017-05-17T02:00:32.445Z,2.90
2017-05-17T02:03:00.080Z,2.86
2017-05-17T02:05:27.271Z,3.62
2017-05-17T02:07:54.486Z,2.88
2017-05-17T02:10:21.681Z,2.50
2017-05-17T02:12:49.670Z,2.70
2017-05-17T02:15:17.620Z,2.62
2017-05-17T02:17:44.861Z,2.96
2017-05-17T02:20:12.070Z,2.82
2017-05-17T02:22:39.306Z,3.36
2017-05-17T02:25:06.524Z,3.02
2017-05-17T02:27:33.732Z,2.48
2017-05-17T02:30:01.807Z,2.84
2017-05-17T02:32:29.865Z,3.22
2017-05-17T02:34:57.049Z,2.20
2017-05-17T02:37:24.333Z,2.66
2017-05-17T02:39:51.555Z,2.94
2017-05-17T02:42:18.769Z,2.50
2017-05-17T02:44:45.961Z,2.72
2017-05-17T02:47:13.169Z,2.42
2017-05-17T02:49:40.365Z,2.56
2017-05-17T02:52:07.536Z,2.54
2017-05-17T02:54:34.738Z,2.80
2017-05-17T02:57:01.941Z,2.36
2017-05-17T02:59:29.355Z,2.16
2017-05-17T03:01:56.538Z,2.34
2017-05-17T03:04:23.741Z,2.80
2017-05-17T03:06:51.072Z,2.42
2017-05-17T03:09:18.567Z,2.42
2017-05-17T03:11:46.528Z,2.60
2017-05-17T03:14:13.753Z,2.58
2017-05-17T03:16:41.700Z,2.98
2017-05-17T03:19:08.933Z,2.50
2017-05-17T03:21:36.121Z,2.72
2017-05-17T03:24:03.333Z,2.54
2017-05-17T03:26:30.620Z,3.04
2017-05-17T03:28:57.832Z,2.74
2017-05-17T03:31:25.487Z,2.40
2017-05-17T03:33:53.417Z,2.84
2017-05-17T03:36:20.724Z,2.76
2017-05-17T03:38:47.957Z,2.52
2017-05-17T03:41:15.172Z,2.44
2017-05-17T03:43:42.767Z,2.76
2017-05-17T03:46:09.978Z,2.66
2017-05-17T03:48:37.169Z,2.40
2017-05-17T03:51:04.565Z,2.60
2017-05-17T03:53:31.771Z,2.54
2017-05-17T03:55:58.948Z,2.22
2017-05-17T03:58:26.584Z,2.56
2017-05-17T04:00:53.862Z,2.74
2017-05-17T04:03:21.042Z,2.46
2017-05-17T04:05:48.243Z,2.58
2017-05-17T04:08:15.445Z,2.60
2017-05-17T04:10:42.653Z,2.64
2017-05-17T04:13:09.856Z,2.88
2017-05-17T04:15:37.189Z,2.40
2017-05-17T04:18:05.116Z,2.32
2017-05-17T04:20:32.309Z,3.00
2017-05-17T04:23:00.375Z,3.12
2017-05-17T04:25:27.669Z,2.86
2017-05-17T04:27:54.888Z,2.44
2017-05-17T04:30:22.101Z,2.88
2017-05-17T04:32:49.281Z,2.78
2017-05-17T04:35:16.512Z,2.74
2017-05-17T04:37:44.493Z,2.80
2017-05-17T04:40:11.809Z,2.68
2017-05-17T04:42:39.108Z,2.62
2017-05-17T04:45:21.224Z,2.90
2017-05-17T04:47:48.417Z,3.18
2017-05-17T04:50:15.708Z,2.92
2017-05-17T04:52:42.932Z,2.52
2017-05-17T04:55:10.104Z,2.80
2017-05-17T04:57:37.306Z,2.30
2017-05-17T05:00:04.680Z,2.50
2017-05-17T05:02:32.122Z,3.08
2017-05-17T05:04:59.409Z,2.60
2017-05-17T05:07:26.648Z,2.76
2017-05-17T05:09:53.831Z,2.36
2017-05-17T05:12:21.987Z,2.50
2017-05-17T05:14:49.290Z,2.66
2017-05-17T05:17:17.007Z,2.38
2017-05-17T05:19:44.269Z,2.58
2017-05-17T05:22:11.490Z,1.90
2017-05-17T05:24:38.689Z,2.58
2017-05-17T05:27:05.945Z,2.80
2017-05-17T05:29:33.127Z,2.44
2017-05-17T05:32:00.344Z,2.30
2017-05-17T05:34:27.549Z,2.32
2017-05-17T05:36:54.805Z,2.12
2017-05-17T05:39:22.074Z,1.98
2017-05-17T05:41:49.296Z,2.30
2017-05-17T05:44:16.707Z,2.00
2017-05-17T05:46:43.926Z,2.44
2017-05-17T05:49:11.121Z,2.26
2017-05-17T05:51:38.330Z,2.10
2017-05-17T05:54:05.524Z,2.38
2017-05-17T05:56:32.754Z,2.00
2017-05-17T05:58:59.972Z,2.34
2017-05-17T06:01:27.169Z,2.40
2017-05-17T06:03:54.365Z,2.10
2017-05-17T06:06:22.516Z,2.42
2017-05-17T06:08:49.691Z,2.26
2017-05-17T06:11:17.233Z,2.20
2017-05-17T06:13:44.900Z,2.12
2017-05-17T06:16:12.093Z,2.16
2017-05-17T06:18:39.308Z,2.20
2017-05-17T06:21:07.269Z,2.78
2017-05-17T06:23:34.469Z,2.32
2017-05-17T06:26:01.750Z,2.38
2017-05-17T06:28:28.941Z,2.18
2017-05-17T06:30:56.148Z,2.20
2017-05-17T06:33:23.358Z,2.06
2017-05-17T06:35:50.564Z,2.36
2017-05-17T06:38:17.769Z,2.12
2017-05-17T06:40:44.960Z,2.30
2017-05-17T06:43:12.645Z,2.46
2017-05-17T06:45:39.841Z,2.28
2017-05-17T06:48:07.036Z,2.40
2017-05-17T06:50:34.235Z,2.18
2017-05-17T06:53:01.412Z,2.20
2017-05-17T06:55:28.600Z,2.04
2017-05-17T06:57:55.828Z,2.28
2017-05-17T07:00:23.032Z,2.46
2017-05-17T07:02:50.229Z,2.56
2017-05-17T07:05:17.433Z,2.08
2017-05-17T07:07:44.691Z,2.24
2017-05-17T07:10:12.804Z,2.18
2017-05-17T07:12:40.556Z,2.20
2017-05-17T07:15:07.752Z,2.22
2017-05-17T07:17:35.725Z,1.82
2017-05-17T07:20:03.987Z,2.38
2017-05-17T07:22:31.862Z,2.10
2017-05-17T07:24:59.685Z,2.10
2017-05-17T07:27:30.233Z,2.26
2017-05-17T07:29:58.285Z,1.80
2017-05-17T07:32:25.832Z,2.02
2017-05-17T07:34:53.967Z,2.40
2017-05-17T07:37:26.604Z,2.34
2017-05-17T07:39:53.967Z,1.98
2017-05-17T07:42:21.210Z,2.14
2017-05-17T07:44:48.389Z,2.34
2017-05-17T07:47:18.988Z,2.04
2017-05-17T07:49:46.209Z,1.88
2017-05-17T07:52:13.400Z,2.20
2017-05-17T07:54:40.645Z,2.46
2017-05-17T07:57:07.844Z,2.30
2017-05-17T07:59:39.875Z,2.18
2017-05-17T08:02:07.080Z,2.06
2017-05-17T08:04:34.330Z,2.18
2017-05-17T08:07:01.517Z,2.10
2017-05-17T08:09:28.724Z,1.90
2017-05-17T08:11:55.944Z,2.10
2017-05-17T08:14:23.200Z,1.90
2017-05-17T08:16:51.141Z,1.80
2017-05-17T08:19:18.330Z,1.88
2017-05-17T08:21:46.257Z,1.54
2017-05-17T08:24:13.449Z,2.20
2017-05-17T08:26:40.720Z,1.60
2017-05-17T08:29:11.813Z,1.90
2017-05-17T08:31:39.771Z,1.40
2017-05-17T08:34:06.986Z,1.70
2017-05-17T08:36:34.284Z,1.60
2017-05-17T08:39:01.470Z,1.44
2017-05-17T08:41:28.730Z,1.70
2017-05-17T08:43:57.097Z,1.76
2017-05-17T08:46:24.310Z,1.66
2017-05-17T08:48:58.357Z,1.70
2017-05-17T08:51:25.559Z,1.30
2017-05-17T08:53:52.785Z,1.60
2017-05-17T08:56:20.750Z,1.70
2017-05-17T08:58:47.936Z,1.88
2017-05-17T09:01:15.128Z,2.06
2017-05-17T09:03:42.309Z,1.66
2017-05-17T09:06:10.232Z,1.60
2017-05-17T09:08:37.424Z,1.90
2017-05-17T09:11:05.393Z,1.60
2017-05-17T09:13:32.662Z,1.68
2017-05-17T09:15:59.889Z,1.90
2017-05-17T09:18:27.840Z,1.90
2017-05-17T09:20:55.066Z,1.90
2017-05-17T09:23:22.284Z,1.76
2017-05-17T09:25:49.512Z,2.00
2017-05-17T09:28:16.808Z,1.96
2017-05-17T09:30:49.199Z,1.84
2017-05-17T09:33:16.383Z,2.12
2017-05-17T09:35:43.604Z,2.10
2017-05-17T09:38:10.851Z,2.00
2017-05-17T09:40:38.060Z,1.82
2017-05-17T09:43:05.257Z,1.94
2017-05-17T09:45:32.473Z,1.78
2017-05-17T09:48:00.422Z,2.02
2017-05-17T09:50:27.616Z,1.60
2017-05-17T09:52:55.566Z,1.60
2017-05-17T09:55:22.801Z,1.94
2017-05-17T09:57:50.044Z,2.18
2017-05-17T10:00:17.313Z,2.00
2017-05-17T10:02:45.262Z,2.04
2017-05-17T10:05:19.433Z,2.00
2017-05-17T10:07:46.865Z,1.78
2017-05-17T10:10:14.205Z,2.00
2017-05-17T10:12:41.593Z,1.90
2017-05-17T10:15:09.764Z,1.64
2017-05-17T10:17:37.146Z,1.72
2017-05-17T10:20:04.625Z,2.26
2017-05-17T10:22:32.064Z,2.00
2017-05-17T10:24:59.506Z,1.70
2017-05-17T10:27:26.949Z,1.70
2017-05-17T10:29:55.117Z,1.70
2017-05-17T10:32:22.593Z,1.92
2017-05-17T10:34:49.981Z,1.70
2017-05-17T10:37:18.061Z,1.76
2017-05-17T10:39:46.309Z,1.80
2017-05-17T10:42:13.822Z,1.88
2017-05-17T10:44:41.296Z,1.86
2017-05-17T10:47:08.756Z,1.76
2017-05-17T10:49:36.197Z,2.00
2017-05-17T10:52:03.652Z,1.76
2017-05-17T10:54:31.119Z,1.86
2017-05-17T10:56:58.557Z,2.08
2017-05-17T10:59:26.005Z,2.28
2017-05-17T11:01:54.116Z,1.76
2017-05-17T11:04:21.544Z,1.92
2017-05-17T11:06:49.756Z,2.24
2017-05-17T11:09:17.204Z,1.76
2017-05-17T11:11:44.636Z,2.14
2017-05-17T11:14:11.988Z,2.02
2017-05-17T11:16:39.425Z,1.66
2017-05-17T11:19:06.904Z,1.84
2017-05-17T11:21:34.989Z,1.76
2017-05-17T11:24:02.327Z,1.80
2017-05-17T11:26:29.743Z,2.04
2017-05-17T11:28:57.201Z,2.04
2017-05-17T11:31:25.401Z,1.72
2017-05-17T11:33:53.572Z,1.90
2017-05-17T11:36:20.937Z,2.08
2017-05-17T11:38:48.385Z,1.82
2017-05-17T11:41:15.840Z,2.00
2017-05-17T11:43:44.015Z,1.80
2017-05-17T11:46:11.388Z,1.98
2017-05-17T11:48:38.841Z,1.96
2017-05-17T11:51:06.280Z,1.90
2017-05-17T11:53:33.722Z,2.04
2017-05-17T11:56:01.901Z,1.78
2017-05-17T11:58:29.349Z,1.74
2017-05-17T12:00:56.813Z,2.04
2017-05-17T12:03:24.289Z,1.96
2017-05-17T12:05:51.731Z,2.02
2017-05-17T12:08:19.168Z,1.76
2017-05-17T12:10:47.217Z,1.78
2017-05-17T12:13:15.412Z,2.14
2017-05-17T12:15:43.517Z,1.96
2017-05-17T12:18:11.377Z,1.80
2017-05-17T12:20:38.825Z,1.96
2017-05-17T12:23:06.309Z,1.78
2017-05-17T12:25:33.736Z,1.72
2017-05-17T12:28:01.200Z,1.84
2017-05-17T12:30:28.694Z,1.80
2017-05-17T12:32:56.946Z,2.40
2017-05-17T12:35:24.392Z,1.82
2017-05-17T12:37:51.750Z,1.84
2017-05-17T12:40:19.185Z,2.26
2017-05-17T12:42:46.623Z,1.90
2017-05-17T12:45:14.057Z,2.16
2017-05-17T12:47:45.297Z,1.94
2017-05-17T12:50:12.640Z,1.78
2017-05-17T12:52:39.979Z,2.02
2017-05-17T12:55:07.413Z,2.40
2017-05-17T12:57:34.861Z,2.20
2017-05-17T13:00:02.296Z,2.10
2017-05-17T13:02:29.730Z,1.98
2017-05-17T13:04:57.703Z,1.82
2017-05-17T13:07:26.389Z,2.22
2017-05-17T13:09:53.853Z,2.10
2017-05-17T13:12:21.302Z,1.90
2017-05-17T13:14:48.768Z,2.20
2017-05-17T13:17:16.216Z,1.82
2017-05-17T13:19:43.528Z,2.26
2017-05-17T13:22:11.605Z,2.26
2017-05-17T13:24:39.017Z,2.32
2017-05-17T13:27:06.440Z,2.26
2017-05-17T13:29:33.956Z,2.02
2017-05-17T13:32:02.157Z,1.80
2017-05-17T13:34:30.323Z,1.78
2017-05-17T13:36:57.774Z,2.00
2017-05-17T13:39:25.201Z,2.28
2017-05-17T13:41:52.651Z,2.20
2017-05-17T13:44:20.218Z,2.30
2017-05-17T13:46:47.538Z,2.52
2017-05-17T13:49:15.000Z,2.34
2017-05-17T13:51:42.404Z,2.10
2017-05-17T13:54:09.829Z,2.80
2017-05-17T13:56:37.301Z,2.14
2017-05-17T13:59:04.828Z,2.48
2017-05-17T14:01:32.285Z,2.54
2017-05-17T14:03:59.704Z,2.10
2017-05-17T14:06:27.124Z,2.00
2017-05-17T14:08:55.345Z,2.70
2017-05-17T14:11:22.685Z,3.12
2017-05-17T14:13:50.057Z,2.60
2017-05-17T14:16:17.430Z,2.40
2017-05-17T14:18:44.808Z,2.20
2017-05-17T14:21:12.253Z,2.32
2017-05-17T14:23:39.689Z,2.66
2017-05-17T14:26:07.126Z,2.50
2017-05-17T14:28:34.472Z,2.42
2017-05-17T14:31:01.816Z,2.60
2017-05-17T14:33:29.243Z,2.86
2017-05-17T14:35:56.652Z,2.60
2017-05-17T14:38:24.081Z,2.70
2017-05-17T14:40:51.501Z,2.58
2017-05-17T14:43:18.913Z,2.70
2017-05-17T14:45:46.358Z,2.04
2017-05-17T14:48:13.801Z,2.48
2017-05-17T14:50:41.265Z,2.20
2017-05-17T14:53:09.436Z,2.40
2017-05-17T14:55:37.659Z,2.00
2017-05-17T14:58:05.213Z,2.62
2017-05-17T15:00:33.535Z,2.56
2017-05-17T15:03:00.994Z,2.24
2017-05-17T15:05:28.441Z,2.06
2017-05-17T15:07:55.853Z,2.04
2017-05-17T15:10:23.397Z,1.96
2017-05-17T15:12:50.737Z,2.18
2017-05-17T15:15:18.206Z,2.40
2017-05-17T15:17:45.654Z,2.00
2017-05-17T15:20:13.874Z,1.80
2017-05-17T15:22:41.409Z,2.10
2017-05-17T15:25:08.824Z,2.90
2017-05-17T15:27:40.241Z,1.86
2017-05-17T15:30:07.712Z,1.70
2017-05-17T15:35:07.603Z,1.80
2017-05-17T15:37:35.056Z,1.90
2017-05-17T15:40:02.513Z,2.30
2017-05-17T15:42:30.001Z,2.78
2017-05-17T15:44:57.565Z,1.92
2017-05-17T15:47:25.125Z,1.74
2017-05-17T15:49:52.563Z,2.42
2017-05-17T15:52:20.021Z,1.94
2017-05-17T15:54:48.062Z,2.84
2017-05-17T15:57:15.523Z,2.58
2017-05-17T15:59:43.322Z,3.10
2017-05-17T16:02:10.777Z,2.10
2017-05-17T16:07:10.612Z,2.40
2017-05-17T16:09:39.485Z,2.30
2017-05-17T16:12:07.621Z,2.72
2017-05-17T16:14:34.933Z,2.50
2017-05-17T16:17:02.505Z,2.70
2017-05-17T16:19:29.880Z,2.10
2017-05-17T16:21:57.348Z,2.62
2017-05-17T16:24:24.801Z,2.36
2017-05-17T16:26:52.345Z,2.30
2017-05-17T16:29:19.894Z,2.48
2017-05-17T16:31:47.336Z,1.90
2017-05-17T16:34:15.632Z,2.04
2017-05-17T16:36:43.052Z,2.50
2017-05-17T16:39:10.508Z,2.90
2017-05-17T16:41:37.936Z,3.22
2017-05-17T16:44:05.533Z,2.34
2017-05-17T16:46:32.885Z,2.40
2017-05-17T16:51:48.813Z,2.92
2017-05-17T16:54:16.001Z,2.28
2017-05-17T16:56:43.497Z,3.86
2017-05-17T16:59:10.791Z,3.56
2017-05-17T17:01:43.382Z,3.22
2017-05-17T17:04:10.632Z,2.50
2017-05-17T17:06:38.060Z,2.50
2017-05-17T17:09:05.440Z,2.48
2017-05-17T17:11:32.917Z,2.90
2017-05-17T17:14:00.307Z,2.50
2017-05-17T17:16:27.505Z,2.30
2017-05-17T17:18:54.701Z,2.42
2017-05-17T17:21:22.448Z,2.30
2017-05-17T17:23:49.716Z,2.00
2017-05-17T17:26:16.936Z,2.58
2017-05-17T17:28:44.193Z,2.46
2017-05-17T17:31:11.405Z,2.20
2017-05-17T17:33:38.621Z,2.26
2017-05-17T17:36:05.895Z,2.52
2017-05-17T17:38:33.126Z,2.58
2017-05-17T17:41:00.339Z,2.22
2017-05-17T17:43:28.309Z,3.02
2017-05-17T17:45:55.532Z,2.30
2017-05-17T17:48:22.732Z,2.70
2017-05-17T17:50:49.942Z,3.12
2017-05-17T17:53:17.889Z,2.44
2017-05-17T17:55:45.917Z,2.60
2017-05-17T17:58:13.137Z,2.68
2017-05-17T18:00:40.592Z,2.54
2017-05-17T18:03:07.901Z,2.66
2017-05-17T18:05:35.138Z,3.00
2017-05-17T18:08:02.342Z,3.40
2017-05-17T18:10:29.625Z,3.12
2017-05-17T18:12:56.919Z,2.78
2017-05-17T18:15:24.213Z,2.82
2017-05-17T18:17:51.431Z,3.02
2017-05-17T18:20:18.714Z,3.38
2017-05-17T18:22:45.929Z,3.52
2017-05-17T18:25:13.150Z,2.64
2017-05-17T18:27:40.383Z,2.50
2017-05-17T18:30:10.045Z,2.68
2017-05-17T18:32:37.261Z,2.98
2017-05-17T18:35:05.316Z,2.50
2017-05-17T18:37:33.288Z,2.94
2017-05-17T18:40:00.524Z,2.54
2017-05-17T18:42:27.736Z,2.70
2017-05-17T18:44:55.014Z,2.64
2017-05-17T18:47:22.297Z,2.68
2017-05-17T18:49:49.524Z,2.74
2017-05-17T18:52:16.763Z,2.98
2017-05-17T18:54:44.693Z,2.56
2017-05-17T18:57:11.868Z,3.20
2017-05-17T18:59:39.884Z,2.68
2017-05-17T19:02:07.948Z,2.94
2017-05-17T19:04:35.141Z,2.86
2017-05-17T19:07:02.388Z,2.76
2017-05-17T19:09:29.624Z,2.66
2017-05-17T19:11:56.882Z,2.82
2017-05-17T19:14:27.419Z,3.02
2017-05-17T19:16:56.550Z,2.68
2017-05-17T19:19:23.748Z,3.24
2017-05-17T19:21:51.573Z,3.04
2017-05-17T19:24:18.805Z,3.18
2017-05-17T19:26:46.756Z,2.90
2017-05-17T19:29:13.966Z,3.10
2017-05-17T19:31:47.872Z,2.90
2017-05-17T19:34:15.077Z,3.10
2017-05-17T19:36:42.862Z,3.00
2017-05-17T19:39:10.244Z,2.70
2017-05-17T19:41:37.465Z,2.86
2017-05-17T19:44:04.687Z,3.08
2017-05-17T19:46:33.985Z,2.72
2017-05-17T19:49:01.195Z,2.70
2017-05-17T19:51:28.404Z,2.84
2017-05-17T19:53:55.617Z,2.84
2017-05-17T19:56:22.804Z,2.92
2017-05-17T19:58:49.999Z,2.98
2017-05-17T20:01:17.278Z,2.90
2017-05-17T20:03:49.174Z,2.66
2017-05-17T20:06:16.445Z,2.80
2017-05-17T20:08:43.701Z,2.90
2017-05-17T20:11:11.665Z,2.86
2017-05-17T20:13:38.857Z,2.54
2017-05-17T20:16:06.125Z,2.98
2017-05-17T20:18:38.309Z,2.46
2017-05-17T20:21:05.588Z,2.58
2017-05-17T20:23:32.793Z,2.78
2017-05-17T20:26:00.020Z,2.72
2017-05-17T20:28:27.246Z,3.00
2017-05-17T20:30:54.469Z,2.70
2017-05-17T20:33:27.633Z,3.62
2017-05-17T20:35:55.687Z,2.70
2017-05-17T20:38:22.905Z,2.84
2017-05-17T20:40:50.093Z,2.98
2017-05-17T20:43:17.335Z,3.22
2017-05-17T20:45:44.542Z,2.96
2017-05-17T20:48:12.487Z,3.00
2017-05-17T20:50:41.203Z,2.58
2017-05-17T20:53:08.416Z,2.96
2017-05-17T20:55:35.629Z,2.70
2017-05-17T20:58:02.855Z,3.52
2017-05-17T21:00:30.787Z,3.26
2017-05-17T21:02:57.982Z,2.92
2017-05-17T21:05:25.248Z,2.90
2017-05-17T21:07:52.485Z,3.04
2017-05-17T21:10:19.768Z,3.30
2017-05-17T21:12:46.989Z,2.88
2017-05-17T21:15:14.776Z,3.00
2017-05-17T21:17:42.196Z,2.92
2017-05-17T21:20:09.397Z,3.36
2017-05-17T21:22:36.633Z,3.30
2017-05-17T21:25:03.897Z,3.66
2017-05-17T21:27:31.109Z,3.80
2017-05-17T21:29:58.407Z,3.72
2017-05-17T21:32:25.614Z,3.46
2017-05-17T21:34:52.813Z,3.42
2017-05-17T21:37:20.032Z,3.64
2017-05-17T21:39:47.664Z,2.78
2017-05-17T21:42:14.987Z,3.08
2017-05-17T21:44:42.230Z,3.20
2017-05-17T21:47:09.437Z,3.16
2017-05-17T21:49:36.762Z,3.44
2017-05-17T21:52:04.100Z,3.52
2017-05-17T21:54:31.346Z,3.60
2017-05-17T21:56:58.662Z,3.00
2017-05-17T21:59:25.865Z,3.00
2017-05-17T22:01:53.101Z,3.96
2017-05-17T22:04:20.326Z,2.98
2017-05-17T22:06:47.600Z,3.32
2017-05-17T22:09:14.825Z,3.10
2017-05-17T22:11:42.067Z,2.86
2017-05-17T22:14:09.291Z,3.54
2017-05-17T22:16:37.272Z,3.10
2017-05-17T22:19:05.288Z,3.06
2017-05-17T22:21:33.314Z,3.58
2017-05-17T22:24:01.296Z,3.28
2017-05-17T22:26:28.529Z,3.18
2017-05-17T22:28:55.757Z,3.00
2017-05-17T22:31:22.957Z,3.32
2017-05-17T22:33:50.200Z,3.44
2017-05-17T22:36:17.440Z,3.38
2017-05-17T22:38:44.706Z,3.20
2017-05-17T22:41:11.931Z,3.22
2017-05-17T22:43:39.141Z,3.40
2017-05-17T22:46:06.357Z,2.84
2017-05-17T22:48:33.563Z,3.30
2017-05-17T22:51:00.844Z,3.12
2017-05-17T22:53:28.069Z,3.72
2017-05-17T22:55:55.288Z,3.04
2017-05-17T22:58:22.680Z,3.34
2017-05-17T23:00:49.950Z,2.90
2017-05-17T23:03:17.184Z,3.18
2017-05-17T23:05:44.464Z,2.96
2017-05-17T23:08:11.682Z,3.32
2017-05-17T23:10:39.378Z,3.06
2017-05-17T23:13:06.613Z,3.04
2017-05-17T23:15:33.825Z,2.80
2017-05-17T23:18:01.040Z,2.82
2017-05-17T23:20:28.245Z,2.74
2017-05-17T23:22:55.544Z,2.98
2017-05-17T23:25:23.548Z,3.00
2017-05-17T23:27:51.524Z,3.02
2017-05-17T23:30:18.773Z,2.84
2017-05-17T23:32:46.481Z,2.96
2017-05-17T23:35:13.705Z,3.08
2017-05-17T23:37:40.956Z,3.08
2017-05-17T23:40:08.145Z,3.18
2017-05-17T23:42:42.327Z,4.06
2017-05-17T23:45:09.522Z,4.10
2017-05-17T23:47:36.717Z,4.20
2017-05-17T23:50:03.961Z,3.64
2017-05-17T23:52:31.180Z,3.30
2017-05-17T23:54:58.389Z,3.26
2017-05-17T23:57:25.608Z,3.64
2017-05-17T23:59:52.800Z,3.40
